sensor_id;sensor_type;location;lat;lon;timestamp;temperature;humidity
30308;DHT22;17114;52.314;8.910;2024-03-25T00:00:14;5.30;99.90
30308;DHT22;17114;52.314;8.910;2024-03-25T00:02:41;5.40;99.90
30308;DHT22;17114;52.314;8.910;2024-03-25T00:05:08;5.30;99.90
30308;DHT22;17114;52.314;8.910;2024-03-25T00:07:39;5.40;99.90
30308;DHT22;17114;52.314;8.910;2024-03-25T00:10:05;5.40;99.90
30308;DHT22;17114;52.314;8.910;2024-03-25T00:12:34;5.40;99.90
30308;DHT22;17114;52.314;8.910;2024-03-25T00:15:01;5.40;99.90
30308;DHT22;17114;52.314;8.910;2024-03-25T00:17:27;5.30;99.90
30308;DHT22;17114;52.314;8.910;2024-03-25T00:19:53;5.40;99.90
30308;DHT22;17114;52.314;8.910;2024-03-25T00:22:21;5.40;99.90
30308;DHT22;17114;52.314;8.910;2024-03-25T00:24:48;5.40;99.90
30308;DHT22;17114;52.314;8.910;2024-03-25T00:27:18;5.40;99.90
30308;DHT22;17114;52.314;8.910;2024-03-25T00:29:45;5.40;99.90
30308;DHT22;17114;52.314;8.910;2024-03-25T00:32:12;5.40;99.90
30308;DHT22;17114;52.314;8.910;2024-03-25T00:34:38;5.40;99.90
30308;DHT22;17114;52.314;8.910;2024-03-25T00:37:04;5.40;99.90
30308;DHT22;17114;52.314;8.910;2024-03-25T00:39:30;5.40;99.90
30308;DHT22;17114;52.314;8.910;2024-03-25T00:41:58;5.40;99.90
30308;DHT22;17114;52.314;8.910;2024-03-25T00:44:25;5.30;99.90
30308;DHT22;17114;52.314;8.910;2024-03-25T00:46:51;5.30;99.90
30308;DHT22;17114;52.314;8.910;2024-03-25T00:49:18;5.30;99.90
30308;DHT22;17114;52.314;8.910;2024-03-25T00:51:44;5.40;99.90
30308;DHT22;17114;52.314;8.910;2024-03-25T00:54:10;5.30;99.90
30308;DHT22;17114;52.314;8.910;2024-03-25T00:56:36;5.40;99.90
30308;DHT22;17114;52.314;8.910;2024-03-25T00:59:03;5.40;99.90
30308;DHT22;17114;52.314;8.910;2024-03-25T01:01:29;5.40;99.90
30308;DHT22;17114;52.314;8.910;2024-03-25T01:03:56;5.40;99.90
30308;DHT22;17114;52.314;8.910;2024-03-25T01:06:23;5.50;99.90
30308;DHT22;17114;52.314;8.910;2024-03-25T01:08:49;5.40;99.90
30308;DHT22;17114;52.314;8.910;2024-03-25T01:11:15;5.40;99.90
30308;DHT22;17114;52.314;8.910;2024-03-25T01:13:41;5.40;99.90
30308;DHT22;17114;52.314;8.910;2024-03-25T01:16:08;5.40;99.90
30308;DHT22;17114;52.314;8.910;2024-03-25T01:18:35;5.30;99.90
30308;DHT22;17114;52.314;8.910;2024-03-25T01:21:01;5.30;99.90
30308;DHT22;17114;52.314;8.910;2024-03-25T01:23:27;5.30;99.90
30308;DHT22;17114;52.314;8.910;2024-03-25T01:25:53;5.50;99.90
30308;DHT22;17114;52.314;8.910;2024-03-25T01:28:19;5.30;99.90
30308;DHT22;17114;52.314;8.910;2024-03-25T01:30:45;5.30;99.90
30308;DHT22;17114;52.314;8.910;2024-03-25T01:33:11;5.30;99.90
30308;DHT22;17114;52.314;8.910;2024-03-25T01:35:37;5.30;99.90
30308;DHT22;17114;52.314;8.910;2024-03-25T01:38:04;5.20;99.90
30308;DHT22;17114;52.314;8.910;2024-03-25T01:40:31;5.30;99.90
30308;DHT22;17114;52.314;8.910;2024-03-25T01:43:02;5.20;99.90
30308;DHT22;17114;52.314;8.910;2024-03-25T01:45:33;5.20;99.90
30308;DHT22;17114;52.314;8.910;2024-03-25T01:48:02;5.20;99.90
30308;DHT22;17114;52.314;8.910;2024-03-25T01:50:31;5.20;99.90
30308;DHT22;17114;52.314;8.910;2024-03-25T01:52:59;5.20;99.90
30308;DHT22;17114;52.314;8.910;2024-03-25T01:55:28;5.20;99.90
30308;DHT22;17114;52.314;8.910;2024-03-25T01:57:55;5.20;99.90
30308;DHT22;17114;52.314;8.910;2024-03-25T02:00:22;5.10;99.90
30308;DHT22;17114;52.314;8.910;2024-03-25T02:02:50;5.20;99.90
30308;DHT22;17114;52.314;8.910;2024-03-25T02:05:17;5.20;99.90
30308;DHT22;17114;52.314;8.910;2024-03-25T02:07:44;5.30;99.90
30308;DHT22;17114;52.314;8.910;2024-03-25T02:10:11;5.20;99.90
30308;DHT22;17114;52.314;8.910;2024-03-25T02:12:41;5.20;99.90
30308;DHT22;17114;52.314;8.910;2024-03-25T02:15:08;5.20;99.90
30308;DHT22;17114;52.314;8.910;2024-03-25T02:17:35;5.30;99.90
30308;DHT22;17114;52.314;8.910;2024-03-25T02:20:06;5.20;99.90
30308;DHT22;17114;52.314;8.910;2024-03-25T02:22:34;5.20;99.90
30308;DHT22;17114;52.314;8.910;2024-03-25T02:25:06;5.20;99.90
30308;DHT22;17114;52.314;8.910;2024-03-25T02:27:38;5.20;99.90
30308;DHT22;17114;52.314;8.910;2024-03-25T02:30:09;5.20;99.90
30308;DHT22;17114;52.314;8.910;2024-03-25T02:32:38;5.20;99.90
30308;DHT22;17114;52.314;8.910;2024-03-25T02:35:15;5.20;99.90
30308;DHT22;17114;52.314;8.910;2024-03-25T02:37:42;5.30;99.90
30308;DHT22;17114;52.314;8.910;2024-03-25T02:40:09;5.30;99.90
30308;DHT22;17114;52.314;8.910;2024-03-25T02:42:36;5.20;99.90
30308;DHT22;17114;52.314;8.910;2024-03-25T02:45:03;5.30;99.90
30308;DHT22;17114;52.314;8.910;2024-03-25T02:47:29;5.20;99.90
30308;DHT22;17114;52.314;8.910;2024-03-25T02:49:57;5.30;99.90
30308;DHT22;17114;52.314;8.910;2024-03-25T02:52:24;5.20;99.90
30308;DHT22;17114;52.314;8.910;2024-03-25T02:54:50;5.30;99.90
30308;DHT22;17114;52.314;8.910;2024-03-25T02:57:17;5.20;99.90
30308;DHT22;17114;52.314;8.910;2024-03-25T02:59:43;5.20;99.90
30308;DHT22;17114;52.314;8.910;2024-03-25T03:02:09;5.20;99.90
30308;DHT22;17114;52.314;8.910;2024-03-25T03:04:36;5.10;99.90
30308;DHT22;17114;52.314;8.910;2024-03-25T03:07:03;5.20;99.90
30308;DHT22;17114;52.314;8.910;2024-03-25T03:09:30;5.20;99.90
30308;DHT22;17114;52.314;8.910;2024-03-25T03:11:57;5.30;99.90
30308;DHT22;17114;52.314;8.910;2024-03-25T03:14:23;5.30;99.90
30308;DHT22;17114;52.314;8.910;2024-03-25T03:16:49;5.20;99.90
30308;DHT22;17114;52.314;8.910;2024-03-25T03:19:15;5.20;99.90
30308;DHT22;17114;52.314;8.910;2024-03-25T03:21:41;5.20;99.90
30308;DHT22;17114;52.314;8.910;2024-03-25T03:24:07;5.20;99.90
30308;DHT22;17114;52.314;8.910;2024-03-25T03:26:34;5.20;99.90
30308;DHT22;17114;52.314;8.910;2024-03-25T03:29:00;5.20;99.90
30308;DHT22;17114;52.314;8.910;2024-03-25T03:31:26;5.30;99.90
30308;DHT22;17114;52.314;8.910;2024-03-25T03:33:53;5.20;99.90
30308;DHT22;17114;52.314;8.910;2024-03-25T03:36:23;5.10;99.90
30308;DHT22;17114;52.314;8.910;2024-03-25T03:38:52;5.20;99.90
30308;DHT22;17114;52.314;8.910;2024-03-25T03:41:18;5.10;99.90
30308;DHT22;17114;52.314;8.910;2024-03-25T03:43:45;5.10;99.90
30308;DHT22;17114;52.314;8.910;2024-03-25T03:46:11;5.10;99.90
30308;DHT22;17114;52.314;8.910;2024-03-25T03:48:38;5.10;99.90
30308;DHT22;17114;52.314;8.910;2024-03-25T03:51:08;5.20;99.90
30308;DHT22;17114;52.314;8.910;2024-03-25T03:53:35;5.10;99.90
30308;DHT22;17114;52.314;8.910;2024-03-25T03:56:04;5.10;99.90
30308;DHT22;17114;52.314;8.910;2024-03-25T03:58:34;5.10;99.90
30308;DHT22;17114;52.314;8.910;2024-03-25T04:01:00;5.10;99.90
30308;DHT22;17114;52.314;8.910;2024-03-25T04:03:27;5.10;99.90
30308;DHT22;17114;52.314;8.910;2024-03-25T04:05:53;5.20;99.90
30308;DHT22;17114;52.314;8.910;2024-03-25T04:08:19;5.20;99.90
30308;DHT22;17114;52.314;8.910;2024-03-25T04:10:46;5.10;99.90
30308;DHT22;17114;52.314;8.910;2024-03-25T04:13:12;5.10;99.90
30308;DHT22;17114;52.314;8.910;2024-03-25T04:15:40;5.10;99.90
30308;DHT22;17114;52.314;8.910;2024-03-25T04:18:07;5.10;99.90
30308;DHT22;17114;52.314;8.910;2024-03-25T04:20:41;5.10;99.90
30308;DHT22;17114;52.314;8.910;2024-03-25T04:23:07;5.10;99.90
30308;DHT22;17114;52.314;8.910;2024-03-25T04:25:34;5.10;99.90
30308;DHT22;17114;52.314;8.910;2024-03-25T04:28:05;5.10;99.90
30308;DHT22;17114;52.314;8.910;2024-03-25T04:30:34;5.10;99.90
30308;DHT22;17114;52.314;8.910;2024-03-25T04:33:01;5.10;99.90
30308;DHT22;17114;52.314;8.910;2024-03-25T04:35:27;5.10;99.90
30308;DHT22;17114;52.314;8.910;2024-03-25T04:37:53;5.20;99.90
30308;DHT22;17114;52.314;8.910;2024-03-25T04:40:21;5.10;99.90
30308;DHT22;17114;52.314;8.910;2024-03-25T04:42:48;5.10;99.90
30308;DHT22;17114;52.314;8.910;2024-03-25T04:45:15;5.10;99.90
30308;DHT22;17114;52.314;8.910;2024-03-25T04:47:41;5.10;99.90
30308;DHT22;17114;52.314;8.910;2024-03-25T04:50:08;5.10;99.90
30308;DHT22;17114;52.314;8.910;2024-03-25T04:52:35;5.10;99.90
30308;DHT22;17114;52.314;8.910;2024-03-25T04:55:02;5.10;99.90
30308;DHT22;17114;52.314;8.910;2024-03-25T04:57:28;5.10;99.90
30308;DHT22;17114;52.314;8.910;2024-03-25T04:59:54;5.10;99.90
30308;DHT22;17114;52.314;8.910;2024-03-25T05:02:20;5.10;99.90
30308;DHT22;17114;52.314;8.910;2024-03-25T05:04:47;5.10;99.90
30308;DHT22;17114;52.314;8.910;2024-03-25T05:07:13;5.10;99.90
30308;DHT22;17114;52.314;8.910;2024-03-25T05:09:40;5.10;99.90
30308;DHT22;17114;52.314;8.910;2024-03-25T05:12:08;5.10;99.90
30308;DHT22;17114;52.314;8.910;2024-03-25T05:14:34;5.10;99.90
30308;DHT22;17114;52.314;8.910;2024-03-25T05:17:00;5.10;99.90
30308;DHT22;17114;52.314;8.910;2024-03-25T05:19:29;5.10;99.90
30308;DHT22;17114;52.314;8.910;2024-03-25T05:21:55;5.10;99.90
30308;DHT22;17114;52.314;8.910;2024-03-25T05:24:24;5.10;99.90
30308;DHT22;17114;52.314;8.910;2024-03-25T05:26:50;5.10;99.90
30308;DHT22;17114;52.314;8.910;2024-03-25T05:29:17;5.20;99.90
30308;DHT22;17114;52.314;8.910;2024-03-25T05:31:57;5.10;99.90
30308;DHT22;17114;52.314;8.910;2024-03-25T05:34:24;5.20;99.90
30308;DHT22;17114;52.314;8.910;2024-03-25T05:36:51;5.00;99.90
30308;DHT22;17114;52.314;8.910;2024-03-25T05:39:17;5.20;99.90
30308;DHT22;17114;52.314;8.910;2024-03-25T05:41:45;5.20;99.90
30308;DHT22;17114;52.314;8.910;2024-03-25T05:44:11;5.20;99.90
30308;DHT22;17114;52.314;8.910;2024-03-25T05:46:38;5.20;99.90
30308;DHT22;17114;52.314;8.910;2024-03-25T05:49:05;5.20;99.90
30308;DHT22;17114;52.314;8.910;2024-03-25T05:51:32;5.20;99.90
30308;DHT22;17114;52.314;8.910;2024-03-25T05:54:01;5.20;99.90
30308;DHT22;17114;52.314;8.910;2024-03-25T05:56:28;5.20;99.90
30308;DHT22;17114;52.314;8.910;2024-03-25T05:58:57;5.20;99.90
30308;DHT22;17114;52.314;8.910;2024-03-25T06:01:24;5.40;99.90
30308;DHT22;17114;52.314;8.910;2024-03-25T06:03:50;5.30;99.90
30308;DHT22;17114;52.314;8.910;2024-03-25T06:06:16;5.20;99.90
30308;DHT22;17114;52.314;8.910;2024-03-25T06:08:43;5.20;99.90
30308;DHT22;17114;52.314;8.910;2024-03-25T06:11:09;5.20;99.90
30308;DHT22;17114;52.314;8.910;2024-03-25T06:13:35;5.30;99.90
30308;DHT22;17114;52.314;8.910;2024-03-25T06:16:02;5.30;99.90
30308;DHT22;17114;52.314;8.910;2024-03-25T06:18:28;5.30;99.90
30308;DHT22;17114;52.314;8.910;2024-03-25T06:20:54;5.30;99.90
30308;DHT22;17114;52.314;8.910;2024-03-25T06:23:26;5.30;99.90
30308;DHT22;17114;52.314;8.910;2024-03-25T06:25:54;5.40;99.90
30308;DHT22;17114;52.314;8.910;2024-03-25T06:28:22;5.40;99.90
30308;DHT22;17114;52.314;8.910;2024-03-25T06:30:51;5.40;99.90
30308;DHT22;17114;52.314;8.910;2024-03-25T06:33:36;5.50;99.90
30308;DHT22;17114;52.314;8.910;2024-03-25T06:36:22;5.50;99.90
30308;DHT22;17114;52.314;8.910;2024-03-25T06:38:49;5.50;99.90
30308;DHT22;17114;52.314;8.910;2024-03-25T06:41:15;5.60;99.90
30308;DHT22;17114;52.314;8.910;2024-03-25T06:43:41;5.60;99.90
30308;DHT22;17114;52.314;8.910;2024-03-25T06:46:07;5.60;99.90
30308;DHT22;17114;52.314;8.910;2024-03-25T06:48:38;5.60;99.90
30308;DHT22;17114;52.314;8.910;2024-03-25T06:51:05;5.70;99.90
30308;DHT22;17114;52.314;8.910;2024-03-25T06:53:31;5.70;99.90
30308;DHT22;17114;52.314;8.910;2024-03-25T06:56:00;5.70;99.90
30308;DHT22;17114;52.314;8.910;2024-03-25T07:01:28;5.90;99.90
30308;DHT22;17114;52.314;8.910;2024-03-25T07:03:54;5.90;99.90
30308;DHT22;17114;52.314;8.910;2024-03-25T07:06:20;6.00;99.90
30308;DHT22;17114;52.314;8.910;2024-03-25T07:08:46;6.10;99.90
30308;DHT22;17114;52.314;8.910;2024-03-25T07:11:13;6.20;99.90
30308;DHT22;17114;52.314;8.910;2024-03-25T07:13:39;6.20;99.90
30308;DHT22;17114;52.314;8.910;2024-03-25T07:16:05;6.20;99.90
30308;DHT22;17114;52.314;8.910;2024-03-25T07:18:32;6.30;99.90
30308;DHT22;17114;52.314;8.910;2024-03-25T07:20:58;6.30;99.90
30308;DHT22;17114;52.314;8.910;2024-03-25T07:23:24;6.30;99.90
30308;DHT22;17114;52.314;8.910;2024-03-25T07:25:49;6.30;99.90
30308;DHT22;17114;52.314;8.910;2024-03-25T07:28:16;6.30;99.90
30308;DHT22;17114;52.314;8.910;2024-03-25T07:30:42;6.40;99.90
30308;DHT22;17114;52.314;8.910;2024-03-25T07:33:08;6.40;99.90
30308;DHT22;17114;52.314;8.910;2024-03-25T07:35:34;6.50;99.90
30308;DHT22;17114;52.314;8.910;2024-03-25T07:38:01;6.50;99.90
30308;DHT22;17114;52.314;8.910;2024-03-25T07:40:28;6.50;99.90
30308;DHT22;17114;52.314;8.910;2024-03-25T07:42:55;6.60;99.90
30308;DHT22;17114;52.314;8.910;2024-03-25T07:45:22;6.60;99.90
30308;DHT22;17114;52.314;8.910;2024-03-25T07:47:48;6.80;99.90
30308;DHT22;17114;52.314;8.910;2024-03-25T07:50:13;6.90;99.90
30308;DHT22;17114;52.314;8.910;2024-03-25T07:52:40;7.00;99.90
30308;DHT22;17114;52.314;8.910;2024-03-25T07:55:07;7.20;99.90
30308;DHT22;17114;52.314;8.910;2024-03-25T07:57:33;7.30;99.90
30308;DHT22;17114;52.314;8.910;2024-03-25T07:59:59;7.40;99.90
30308;DHT22;17114;52.314;8.910;2024-03-25T08:02:25;7.50;99.90
30308;DHT22;17114;52.314;8.910;2024-03-25T08:04:51;7.50;99.90
30308;DHT22;17114;52.314;8.910;2024-03-25T08:07:17;7.60;99.90
30308;DHT22;17114;52.314;8.910;2024-03-25T08:09:43;7.70;99.90
30308;DHT22;17114;52.314;8.910;2024-03-25T08:12:09;7.70;99.90
30308;DHT22;17114;52.314;8.910;2024-03-25T08:14:35;7.70;99.90
30308;DHT22;17114;52.314;8.910;2024-03-25T08:17:01;7.70;99.90
30308;DHT22;17114;52.314;8.910;2024-03-25T08:19:28;7.80;99.90
30308;DHT22;17114;52.314;8.910;2024-03-25T08:21:54;7.90;99.90
30308;DHT22;17114;52.314;8.910;2024-03-25T08:24:20;8.00;99.90
30308;DHT22;17114;52.314;8.910;2024-03-25T08:26:46;8.10;99.90
30308;DHT22;17114;52.314;8.910;2024-03-25T08:29:12;8.20;99.90
30308;DHT22;17114;52.314;8.910;2024-03-25T08:31:38;8.20;99.90
30308;DHT22;17114;52.314;8.910;2024-03-25T08:34:04;8.20;99.90
30308;DHT22;17114;52.314;8.910;2024-03-25T08:36:29;8.20;99.90
30308;DHT22;17114;52.314;8.910;2024-03-25T08:38:55;8.30;99.90
30308;DHT22;17114;52.314;8.910;2024-03-25T08:41:21;8.30;99.90
30308;DHT22;17114;52.314;8.910;2024-03-25T08:43:47;8.40;99.90
30308;DHT22;17114;52.314;8.910;2024-03-25T08:46:13;8.40;99.90
30308;DHT22;17114;52.314;8.910;2024-03-25T08:48:39;8.40;99.90
30308;DHT22;17114;52.314;8.910;2024-03-25T08:51:05;8.40;99.90
30308;DHT22;17114;52.314;8.910;2024-03-25T08:53:31;8.30;99.90
30308;DHT22;17114;52.314;8.910;2024-03-25T08:55:56;8.50;99.90
30308;DHT22;17114;52.314;8.910;2024-03-25T08:58:22;8.60;99.90
30308;DHT22;17114;52.314;8.910;2024-03-25T09:00:48;8.60;99.90
30308;DHT22;17114;52.314;8.910;2024-03-25T09:03:14;8.70;99.90
30308;DHT22;17114;52.314;8.910;2024-03-25T09:05:40;8.70;99.90
30308;DHT22;17114;52.314;8.910;2024-03-25T09:08:06;8.60;99.90
30308;DHT22;17114;52.314;8.910;2024-03-25T09:10:32;8.40;99.90
30308;DHT22;17114;52.314;8.910;2024-03-25T09:13:17;8.40;99.90
30308;DHT22;17114;52.314;8.910;2024-03-25T09:15:43;8.50;99.90
30308;DHT22;17114;52.314;8.910;2024-03-25T09:18:09;8.60;99.90
30308;DHT22;17114;52.314;8.910;2024-03-25T09:20:35;8.80;99.90
30308;DHT22;17114;52.314;8.910;2024-03-25T09:23:01;8.90;99.90
30308;DHT22;17114;52.314;8.910;2024-03-25T09:25:27;8.90;99.90
30308;DHT22;17114;52.314;8.910;2024-03-25T09:27:53;9.00;99.90
30308;DHT22;17114;52.314;8.910;2024-03-25T09:30:19;8.90;99.90
30308;DHT22;17114;52.314;8.910;2024-03-25T09:32:45;8.90;99.90
30308;DHT22;17114;52.314;8.910;2024-03-25T09:35:12;8.80;99.90
30308;DHT22;17114;52.314;8.910;2024-03-25T09:37:39;8.50;99.90
30308;DHT22;17114;52.314;8.910;2024-03-25T09:40:06;8.50;99.90
30308;DHT22;17114;52.314;8.910;2024-03-25T09:42:48;8.50;99.90
30308;DHT22;17114;52.314;8.910;2024-03-25T09:45:16;8.50;99.90
30308;DHT22;17114;52.314;8.910;2024-03-25T09:47:46;8.50;99.90
30308;DHT22;17114;52.314;8.910;2024-03-25T09:50:15;8.50;99.90
30308;DHT22;17114;52.314;8.910;2024-03-25T09:52:49;8.80;99.90
30308;DHT22;17114;52.314;8.910;2024-03-25T09:55:16;9.00;99.90
30308;DHT22;17114;52.314;8.910;2024-03-25T09:57:43;8.80;99.90
30308;DHT22;17114;52.314;8.910;2024-03-25T10:00:10;8.60;99.90
30308;DHT22;17114;52.314;8.910;2024-03-25T10:02:41;8.90;99.90
30308;DHT22;17114;52.314;8.910;2024-03-25T10:05:07;9.80;99.90
30308;DHT22;17114;52.314;8.910;2024-03-25T10:07:34;10.50;99.90
30308;DHT22;17114;52.314;8.910;2024-03-25T10:10:06;10.80;99.90
30308;DHT22;17114;52.314;8.910;2024-03-25T10:12:33;11.20;99.90
30308;DHT22;17114;52.314;8.910;2024-03-25T10:15:01;11.40;99.90
30308;DHT22;17114;52.314;8.910;2024-03-25T10:17:30;11.70;99.90
30308;DHT22;17114;52.314;8.910;2024-03-25T10:19:56;11.60;99.90
30308;DHT22;17114;52.314;8.910;2024-03-25T10:22:23;11.30;99.90
30308;DHT22;17114;52.314;8.910;2024-03-25T10:24:49;11.20;99.90
30308;DHT22;17114;52.314;8.910;2024-03-25T10:27:21;10.90;99.90
30308;DHT22;17114;52.314;8.910;2024-03-25T10:29:48;10.50;99.90
30308;DHT22;17114;52.314;8.910;2024-03-25T10:32:17;10.30;99.90
30308;DHT22;17114;52.314;8.910;2024-03-25T10:34:44;10.30;99.90
30308;DHT22;17114;52.314;8.910;2024-03-25T10:37:11;10.30;99.90
30308;DHT22;17114;52.314;8.910;2024-03-25T10:39:45;10.20;99.90
30308;DHT22;17114;52.314;8.910;2024-03-25T10:42:14;10.20;99.90
30308;DHT22;17114;52.314;8.910;2024-03-25T10:44:40;10.30;99.90
30308;DHT22;17114;52.314;8.910;2024-03-25T10:47:08;10.20;99.90
30308;DHT22;17114;52.314;8.910;2024-03-25T10:49:56;10.30;99.90
30308;DHT22;17114;52.314;8.910;2024-03-25T10:52:27;10.30;99.90
30308;DHT22;17114;52.314;8.910;2024-03-25T10:54:55;10.60;99.90
30308;DHT22;17114;52.314;8.910;2024-03-25T10:57:22;11.00;99.90
30308;DHT22;17114;52.314;8.910;2024-03-25T10:59:49;11.30;99.90
30308;DHT22;17114;52.314;8.910;2024-03-25T11:02:15;11.40;99.90
30308;DHT22;17114;52.314;8.910;2024-03-25T11:04:43;11.30;99.90
30308;DHT22;17114;52.314;8.910;2024-03-25T11:07:12;11.30;99.90
30308;DHT22;17114;52.314;8.910;2024-03-25T11:09:38;11.30;99.90
30308;DHT22;17114;52.314;8.910;2024-03-25T11:12:05;11.30;99.90
30308;DHT22;17114;52.314;8.910;2024-03-25T11:14:31;11.50;99.90
30308;DHT22;17114;52.314;8.910;2024-03-25T11:16:58;12.00;99.90
30308;DHT22;17114;52.314;8.910;2024-03-25T11:19:26;12.20;99.90
30308;DHT22;17114;52.314;8.910;2024-03-25T11:21:53;12.60;99.90
30308;DHT22;17114;52.314;8.910;2024-03-25T11:24:29;12.60;99.90
30308;DHT22;17114;52.314;8.910;2024-03-25T11:26:56;12.50;99.90
30308;DHT22;17114;52.314;8.910;2024-03-25T11:29:22;12.80;99.90
30308;DHT22;17114;52.314;8.910;2024-03-25T11:31:52;13.20;99.90
30308;DHT22;17114;52.314;8.910;2024-03-25T11:34:19;13.40;99.90
30308;DHT22;17114;52.314;8.910;2024-03-25T11:36:45;13.60;99.90
30308;DHT22;17114;52.314;8.910;2024-03-25T11:39:13;13.80;99.90
30308;DHT22;17114;52.314;8.910;2024-03-25T11:41:40;14.20;99.90
30308;DHT22;17114;52.314;8.910;2024-03-25T11:44:10;14.30;99.90
30308;DHT22;17114;52.314;8.910;2024-03-25T11:46:38;14.40;99.90
30308;DHT22;17114;52.314;8.910;2024-03-25T11:49:14;14.20;99.90
30308;DHT22;17114;52.314;8.910;2024-03-25T11:51:40;13.70;99.90
30308;DHT22;17114;52.314;8.910;2024-03-25T11:54:09;13.70;99.90
30308;DHT22;17114;52.314;8.910;2024-03-25T11:56:36;13.90;99.90
30308;DHT22;17114;52.314;8.910;2024-03-25T11:59:03;13.60;99.90
30308;DHT22;17114;52.314;8.910;2024-03-25T12:01:30;13.40;99.90
30308;DHT22;17114;52.314;8.910;2024-03-25T12:03:57;13.50;99.90
30308;DHT22;17114;52.314;8.910;2024-03-25T12:06:23;13.30;99.90
30308;DHT22;17114;52.314;8.910;2024-03-25T12:08:49;13.00;99.90
30308;DHT22;17114;52.314;8.910;2024-03-25T12:11:33;12.40;99.90
30308;DHT22;17114;52.314;8.910;2024-03-25T12:14:01;11.80;99.90
30308;DHT22;17114;52.314;8.910;2024-03-25T12:16:27;11.60;99.90
30308;DHT22;17114;52.314;8.910;2024-03-25T12:18:53;11.30;99.90
30308;DHT22;17114;52.314;8.910;2024-03-25T12:21:20;11.30;99.90
30308;DHT22;17114;52.314;8.910;2024-03-25T12:23:47;11.20;99.90
30308;DHT22;17114;52.314;8.910;2024-03-25T12:26:13;11.30;99.90
30308;DHT22;17114;52.314;8.910;2024-03-25T12:28:40;11.30;99.90
30308;DHT22;17114;52.314;8.910;2024-03-25T12:31:09;11.30;99.90
30308;DHT22;17114;52.314;8.910;2024-03-25T12:33:46;11.30;99.90
30308;DHT22;17114;52.314;8.910;2024-03-25T12:36:12;11.20;99.90
30308;DHT22;17114;52.314;8.910;2024-03-25T12:38:38;11.20;99.90
30308;DHT22;17114;52.314;8.910;2024-03-25T12:41:11;11.30;99.90
30308;DHT22;17114;52.314;8.910;2024-03-25T12:43:44;11.70;99.90
30308;DHT22;17114;52.314;8.910;2024-03-25T12:46:11;12.10;99.90
30308;DHT22;17114;52.314;8.910;2024-03-25T12:48:38;12.20;99.90
30308;DHT22;17114;52.314;8.910;2024-03-25T12:51:04;12.40;99.90
30308;DHT22;17114;52.314;8.910;2024-03-25T12:53:30;12.30;99.90
30308;DHT22;17114;52.314;8.910;2024-03-25T12:55:57;12.10;99.90
30308;DHT22;17114;52.314;8.910;2024-03-25T12:58:23;11.90;99.90
30308;DHT22;17114;52.314;8.910;2024-03-25T13:00:49;11.70;99.90
30308;DHT22;17114;52.314;8.910;2024-03-25T13:03:15;11.60;99.90
30308;DHT22;17114;52.314;8.910;2024-03-25T13:05:43;11.60;99.90
30308;DHT22;17114;52.314;8.910;2024-03-25T13:08:09;11.50;99.90
30308;DHT22;17114;52.314;8.910;2024-03-25T13:10:35;11.40;99.90
30308;DHT22;17114;52.314;8.910;2024-03-25T13:13:02;11.30;99.90
30308;DHT22;17114;52.314;8.910;2024-03-25T13:15:28;11.70;99.90
30308;DHT22;17114;52.314;8.910;2024-03-25T13:17:54;12.10;99.90
30308;DHT22;17114;52.314;8.910;2024-03-25T13:20:20;12.20;99.90
30308;DHT22;17114;52.314;8.910;2024-03-25T13:22:46;12.20;99.90
30308;DHT22;17114;52.314;8.910;2024-03-25T13:25:13;12.10;99.90
30308;DHT22;17114;52.314;8.910;2024-03-25T13:27:39;12.10;99.90
30308;DHT22;17114;52.314;8.910;2024-03-25T13:30:06;12.00;99.90
30308;DHT22;17114;52.314;8.910;2024-03-25T13:32:33;11.70;99.90
30308;DHT22;17114;52.314;8.910;2024-03-25T13:34:59;11.40;99.90
30308;DHT22;17114;52.314;8.910;2024-03-25T13:37:24;11.30;99.90
30308;DHT22;17114;52.314;8.910;2024-03-25T13:39:51;11.10;99.90
30308;DHT22;17114;52.314;8.910;2024-03-25T13:42:18;11.10;99.90
30308;DHT22;17114;52.314;8.910;2024-03-25T13:44:44;11.00;99.90
30308;DHT22;17114;52.314;8.910;2024-03-25T13:47:10;10.90;99.90
30308;DHT22;17114;52.314;8.910;2024-03-25T13:49:36;10.80;99.90
30308;DHT22;17114;52.314;8.910;2024-03-25T13:52:03;10.70;99.90
30308;DHT22;17114;52.314;8.910;2024-03-25T13:54:30;10.70;99.90
30308;DHT22;17114;52.314;8.910;2024-03-25T13:56:59;10.70;99.90
30308;DHT22;17114;52.314;8.910;2024-03-25T13:59:25;10.70;99.90
30308;DHT22;17114;52.314;8.910;2024-03-25T14:01:52;10.70;99.90
30308;DHT22;17114;52.314;8.910;2024-03-25T14:04:20;10.70;99.90
30308;DHT22;17114;52.314;8.910;2024-03-25T14:06:46;10.70;99.90
30308;DHT22;17114;52.314;8.910;2024-03-25T14:09:25;10.70;99.90
30308;DHT22;17114;52.314;8.910;2024-03-25T14:11:51;10.60;99.90
30308;DHT22;17114;52.314;8.910;2024-03-25T14:14:17;10.60;99.90
30308;DHT22;17114;52.314;8.910;2024-03-25T14:16:43;10.80;99.90
30308;DHT22;17114;52.314;8.910;2024-03-25T14:19:09;10.80;99.90
30308;DHT22;17114;52.314;8.910;2024-03-25T14:21:35;10.90;99.90
30308;DHT22;17114;52.314;8.910;2024-03-25T14:24:01;10.90;99.90
30308;DHT22;17114;52.314;8.910;2024-03-25T14:26:27;11.10;99.90
30308;DHT22;17114;52.314;8.910;2024-03-25T14:28:53;11.30;99.90
30308;DHT22;17114;52.314;8.910;2024-03-25T14:31:19;11.30;99.90
30308;DHT22;17114;52.314;8.910;2024-03-25T14:33:45;11.30;99.90
30308;DHT22;17114;52.314;8.910;2024-03-25T14:36:11;11.30;99.90
30308;DHT22;17114;52.314;8.910;2024-03-25T14:38:37;11.30;99.90
30308;DHT22;17114;52.314;8.910;2024-03-25T14:41:05;11.40;99.90
30308;DHT22;17114;52.314;8.910;2024-03-25T14:43:31;11.50;99.90
30308;DHT22;17114;52.314;8.910;2024-03-25T14:45:57;11.50;99.90
30308;DHT22;17114;52.314;8.910;2024-03-25T14:48:23;11.50;99.90
30308;DHT22;17114;52.314;8.910;2024-03-25T14:50:49;11.50;99.90
30308;DHT22;17114;52.314;8.910;2024-03-25T14:53:15;11.40;99.90
30308;DHT22;17114;52.314;8.910;2024-03-25T14:55:44;11.20;99.90
30308;DHT22;17114;52.314;8.910;2024-03-25T14:58:10;11.20;99.90
30308;DHT22;17114;52.314;8.910;2024-03-25T15:00:36;11.20;99.90
30308;DHT22;17114;52.314;8.910;2024-03-25T15:03:03;11.20;99.90
30308;DHT22;17114;52.314;8.910;2024-03-25T15:05:29;11.20;99.90
30308;DHT22;17114;52.314;8.910;2024-03-25T15:07:55;11.20;99.90
30308;DHT22;17114;52.314;8.910;2024-03-25T15:10:21;11.10;99.90
30308;DHT22;17114;52.314;8.910;2024-03-25T15:12:47;11.00;99.90
30308;DHT22;17114;52.314;8.910;2024-03-25T15:15:13;10.90;99.90
30308;DHT22;17114;52.314;8.910;2024-03-25T15:17:39;10.80;99.90
30308;DHT22;17114;52.314;8.910;2024-03-25T15:20:05;10.80;99.90
30308;DHT22;17114;52.314;8.910;2024-03-25T15:22:31;10.70;99.90
30308;DHT22;17114;52.314;8.910;2024-03-25T15:24:58;10.60;99.90
30308;DHT22;17114;52.314;8.910;2024-03-25T15:27:24;10.60;99.90
30308;DHT22;17114;52.314;8.910;2024-03-25T15:29:49;10.50;99.90
30308;DHT22;17114;52.314;8.910;2024-03-25T15:32:16;10.40;99.90
30308;DHT22;17114;52.314;8.910;2024-03-25T15:34:42;10.40;99.90
30308;DHT22;17114;52.314;8.910;2024-03-25T15:37:08;10.30;99.90
30308;DHT22;17114;52.314;8.910;2024-03-25T15:39:37;10.20;99.90
30308;DHT22;17114;52.314;8.910;2024-03-25T15:42:04;10.20;99.90